Time;durP1;ratioP1;P1;durP2;ratioP2;P2;SDS_P1;SDS_P2;PMS_P1;PMS_P2;Temp;Humidity;BMP_temperature;BMP_pressure;BME280_temperature;BME280_humidity;BME280_pressure;Samples;Min_cycle;Max_cycle;Signal;HPM_P1;HPM_P2
2023/05/13 00:01:55;;;;;;;1999.90;999.90;;;;;;;;;;6333795;22;20015;-92
2023/05/13 00:04:21;;;;;;;1999.90;999.90;;;;;;;;;;6334852;22;20015;-90
2023/05/13 00:06:47;;;;;;;1999.90;999.90;;;;;;;;;;6307758;22;20078;-91
2023/05/13 00:09:13;;;;;;;1999.90;999.90;;;;;;;;;;6334780;22;20018;-91
2023/05/13 00:11:40;;;;;;;1999.90;999.90;;;;;;;;;;6333849;22;20011;-91
2023/05/13 00:14:08;;;;;;;1999.90;999.90;;;;;;;;;;6335623;22;20017;-91
2023/05/13 00:16:34;;;;;;;1999.90;999.90;;;;;;;;;;6335524;22;20017;-90
2023/05/13 00:19:00;;;;;;;1999.90;999.90;;;;;;;;;;6307940;22;20317;-91
2023/05/13 00:21:26;;;;;;;1999.90;999.90;;;;;;;;;;6305977;22;20017;-92
2023/05/13 00:23:52;;;;;;;1999.90;999.90;;;;;;;;;;6306845;22;20014;-91
2023/05/13 00:26:18;;;;;;;1999.90;999.90;;;;;;;;;;6333798;22;20046;-92
2023/05/13 00:28:44;;;;;;;1999.90;999.90;;;;;;;;;;6307462;22;20074;-92
2023/05/13 00:31:10;;;;;;;1999.90;999.90;;;;;;;;;;6305397;22;20141;-91
2023/05/13 00:33:36;;;;;;;1999.90;999.90;;;;;;;;;;6342590;22;20079;-92
2023/05/13 00:36:03;;;;;;;1999.90;999.90;;;;;;;;;;6343913;22;20026;-93
2023/05/13 00:38:29;;;;;;;1999.90;999.90;;;;;;;;;;6336255;22;20340;-92
2023/05/13 00:40:55;;;;;;;1999.90;999.90;;;;;;;;;;6306660;22;20021;-91
2023/05/13 00:43:21;;;;;;;1999.90;999.90;;;;;;;;;;6335685;22;20015;-92
2023/05/13 00:45:47;;;;;;;1999.90;999.90;;;;;;;;;;6335788;22;20021;-92
2023/05/13 00:48:13;;;;;;;1999.90;999.90;;;;;;;;;;6333523;22;20065;-93
2023/05/13 00:50:41;;;;;;;1999.90;999.90;;;;;;;;;;6334178;22;20022;-92
2023/05/13 00:53:07;;;;;;;1999.90;999.90;;;;;;;;;;6333842;22;20108;-90
2023/05/13 00:55:33;;;;;;;1999.90;999.90;;;;;;;;;;6333429;22;20008;-90
2023/05/13 00:57:59;;;;;;;1999.90;999.90;;;;;;;;;;6304795;22;20687;-90
2023/05/13 01:00:25;;;;;;;1999.90;999.90;;;;;;;;;;6334299;22;20014;-91
2023/05/13 01:02:51;;;;;;;1999.90;999.90;;;;;;;;;;6332585;22;20014;-91
2023/05/13 01:05:29;;;;;;;1999.90;999.90;;;;;;;;;;6332054;22;20015;-91
2023/05/13 01:08:16;;;;;;;1999.90;999.90;;;;;;;;;;6332668;22;20085;-91
2023/05/13 01:10:57;;;;;;;1999.90;999.90;;;;;;;;;;6334268;22;20018;-91
2023/05/13 01:13:24;;;;;;;1999.90;999.90;;;;;;;;;;6334316;22;20015;-91
2023/05/13 01:15:58;;;;;;;1999.90;999.90;;;;;;;;;;6306596;22;20014;-92
2023/05/13 01:18:27;;;;;;;1999.90;999.90;;;;;;;;;;6333206;22;20025;-92
2023/05/13 01:20:54;;;;;;;1999.90;999.90;;;;;;;;;;6305588;22;20011;-92
2023/05/13 01:23:20;;;;;;;1999.90;999.90;;;;;;;;;;6334318;22;20018;-92
2023/05/13 01:25:47;;;;;;;1999.90;999.90;;;;;;;;;;6334759;22;20365;-92
2023/05/13 01:28:13;;;;;;;1999.90;999.90;;;;;;;;;;6305995;22;20018;-92
2023/05/13 01:30:39;;;;;;;1999.90;999.90;;;;;;;;;;6334643;22;20094;-92
2023/05/13 01:33:06;;;;;;;1999.90;999.90;;;;;;;;;;6334109;22;20014;-93
2023/05/13 01:35:32;;;;;;;1999.90;999.90;;;;;;;;;;6306387;22;20085;-91
2023/05/13 01:37:59;;;;;;;1999.90;999.90;;;;;;;;;;6333259;22;20011;-92
2023/05/13 01:40:25;;;;;;;1999.90;999.90;;;;;;;;;;6281265;22;20019;-92
2023/05/13 01:42:51;;;;;;;1999.90;999.90;;;;;;;;;;6334572;22;20082;-92
2023/05/13 01:45:17;;;;;;;1999.90;999.90;;;;;;;;;;6306404;22;20092;-92
2023/05/13 01:47:43;;;;;;;1999.90;999.90;;;;;;;;;;6306639;22;20019;-87
2023/05/13 01:50:10;;;;;;;1999.90;999.90;;;;;;;;;;6305210;22;20670;-92
2023/05/13 01:52:36;;;;;;;1999.90;999.90;;;;;;;;;;6333385;22;20034;-93
2023/05/13 01:55:02;;;;;;;1999.90;999.90;;;;;;;;;;6307113;22;20022;-92
2023/05/13 01:57:28;;;;;;;1999.90;999.90;;;;;;;;;;6306709;22;20023;-92
2023/05/13 01:59:54;;;;;;;1999.90;999.90;;;;;;;;;;6333696;22;20053;-92
2023/05/13 02:02:20;;;;;;;1999.90;999.90;;;;;;;;;;6306882;22;20026;-92
2023/05/13 02:04:46;;;;;;;1999.90;999.90;;;;;;;;;;6307752;22;20157;-93
2023/05/13 02:07:12;;;;;;;1999.90;999.90;;;;;;;;;;6334677;22;20659;-92
2023/05/13 02:09:38;;;;;;;1999.90;999.90;;;;;;;;;;6333759;22;20023;-92
2023/05/13 02:12:04;;;;;;;1999.90;999.90;;;;;;;;;;6306788;22;20015;-92
2023/05/13 02:14:30;;;;;;;1999.90;999.90;;;;;;;;;;6307045;22;20014;-92
2023/05/13 02:16:56;;;;;;;1999.90;999.90;;;;;;;;;;6306602;22;20021;-92
2023/05/13 02:19:23;;;;;;;1999.90;999.90;;;;;;;;;;6334518;22;20014;-93
2023/05/13 02:21:49;;;;;;;1999.90;999.90;;;;;;;;;;6334351;22;20647;-93
2023/05/13 02:24:16;;;;;;;1999.90;999.90;;;;;;;;;;6333465;22;20011;-92
2023/05/13 02:26:43;;;;;;;1999.90;999.90;;;;;;;;;;6334907;22;20042;-92
2023/05/13 02:29:09;;;;;;;1999.90;999.90;;;;;;;;;;6333695;22;20117;-93
2023/05/13 02:31:35;;;;;;;1999.90;999.90;;;;;;;;;;6334063;22;20046;-92
2023/05/13 02:34:02;;;;;;;1999.90;999.90;;;;;;;;;;6334503;22;20006;-93
2023/05/13 02:36:28;;;;;;;1999.90;999.90;;;;;;;;;;6334821;22;20015;-92
2023/05/13 02:38:54;;;;;;;1999.90;999.90;;;;;;;;;;6333507;22;20014;-93
2023/05/13 02:41:20;;;;;;;1999.90;999.90;;;;;;;;;;6334361;22;20453;-93
2023/05/13 02:43:46;;;;;;;1999.90;999.90;;;;;;;;;;6334107;22;20025;-93
2023/05/13 02:46:12;;;;;;;1999.90;999.90;;;;;;;;;;6334047;22;20015;-91
2023/05/13 02:48:38;;;;;;;1999.90;999.90;;;;;;;;;;6334637;22;20031;-93
2023/05/13 02:51:04;;;;;;;1999.90;999.90;;;;;;;;;;6333888;22;20080;-94
2023/05/13 02:53:30;;;;;;;1999.90;999.90;;;;;;;;;;6333465;22;20078;-93
2023/05/13 02:55:56;;;;;;;1999.90;999.90;;;;;;;;;;6334744;22;20010;-92
2023/05/13 02:58:22;;;;;;;1999.90;999.90;;;;;;;;;;6345329;22;20009;-93
2023/05/13 03:00:48;;;;;;;1999.90;999.90;;;;;;;;;;6345330;22;20014;-93
2023/05/13 03:03:15;;;;;;;1999.90;999.90;;;;;;;;;;6310753;22;20017;-93
2023/05/13 03:05:41;;;;;;;1999.90;999.90;;;;;;;;;;6337435;22;20327;-93
2023/05/13 03:08:07;;;;;;;1999.90;999.90;;;;;;;;;;6335298;22;20046;-94
2023/05/13 03:10:33;;;;;;;1999.90;999.90;;;;;;;;;;6309050;22;20014;-93
2023/05/13 03:12:59;;;;;;;1999.90;999.90;;;;;;;;;;6335434;22;20068;-92
2023/05/13 03:15:25;;;;;;;1999.90;999.90;;;;;;;;;;6308268;22;20431;-93
2023/05/13 03:17:51;;;;;;;1999.90;999.90;;;;;;;;;;6336656;22;20029;-93
2023/05/13 03:20:17;;;;;;;1999.90;999.90;;;;;;;;;;6307712;22;20023;-93
2023/05/13 03:22:43;;;;;;;1999.90;999.90;;;;;;;;;;6308473;22;20015;-92
2023/05/13 03:25:09;;;;;;;1999.90;999.90;;;;;;;;;;6308838;22;20034;-93
2023/05/13 03:27:35;;;;;;;1999.90;999.90;;;;;;;;;;6336325;22;20025;-94
2023/05/13 03:30:01;;;;;;;1999.90;999.90;;;;;;;;;;6336401;22;20061;-93
2023/05/13 03:32:29;;;;;;;1999.90;999.90;;;;;;;;;;6309860;22;20014;-93
2023/05/13 03:34:56;;;;;;;1999.90;999.90;;;;;;;;;;6336697;22;20011;-93
2023/05/13 03:37:23;;;;;;;1999.90;999.90;;;;;;;;;;6308322;22;20014;-93
2023/05/13 03:39:49;;;;;;;1999.90;999.90;;;;;;;;;;6337638;22;20022;-92
2023/05/13 03:42:15;;;;;;;1999.90;999.90;;;;;;;;;;6309581;22;20436;-93
2023/05/13 03:44:41;;;;;;;1999.90;999.90;;;;;;;;;;6336635;22;20011;-93
2023/05/13 03:47:07;;;;;;;1999.90;999.90;;;;;;;;;;6334996;22;20432;-92
2023/05/13 03:49:33;;;;;;;1999.90;999.90;;;;;;;;;;6308284;22;20015;-94
2023/05/13 03:51:59;;;;;;;1999.90;999.90;;;;;;;;;;6307751;22;20069;-93
2023/05/13 03:54:25;;;;;;;1999.90;999.90;;;;;;;;;;6336881;22;20328;-93
2023/05/13 03:56:51;;;;;;;1999.90;999.90;;;;;;;;;;6335690;22;20011;-93
2023/05/13 03:59:17;;;;;;;1999.90;999.90;;;;;;;;;;6335508;22;20019;-94
2023/05/13 04:01:43;;;;;;;1999.90;999.90;;;;;;;;;;6336092;22;20064;-93
2023/05/13 04:04:08;;;;;;;1999.90;999.90;;;;;;;;;;6306994;22;20360;-93
2023/05/13 04:06:34;;;;;;;1999.90;999.90;;;;;;;;;;6334625;22;20011;-93
2023/05/13 04:09:03;;;;;;;1999.90;999.90;;;;;;;;;;6305738;22;20060;-93
2023/05/13 04:11:30;;;;;;;1999.90;999.90;;;;;;;;;;6335018;22;20082;-93
2023/05/13 04:13:56;;;;;;;1999.90;999.90;;;;;;;;;;6307621;22;20030;-92
2023/05/13 04:16:22;;;;;;;1999.90;999.90;;;;;;;;;;6335486;22;20011;-92
2023/05/13 04:18:48;;;;;;;1999.90;999.90;;;;;;;;;;6335016;22;20025;-92
2023/05/13 04:21:14;;;;;;;1999.90;999.90;;;;;;;;;;6281109;22;20419;-94
2023/05/13 04:23:41;;;;;;;1999.90;999.90;;;;;;;;;;6307963;22;20015;-92
2023/05/13 04:26:07;;;;;;;1999.90;999.90;;;;;;;;;;6334293;22;20011;-91
2023/05/13 04:28:33;;;;;;;1999.90;999.90;;;;;;;;;;6334236;22;20409;-92
2023/05/13 04:30:59;;;;;;;1999.90;999.90;;;;;;;;;;6334445;22;20048;-89
2023/05/13 04:33:26;;;;;;;1999.90;999.90;;;;;;;;;;6332335;22;20011;-89
2023/05/13 04:35:52;;;;;;;1999.90;999.90;;;;;;;;;;6304306;22;20014;-73
2023/05/13 04:38:18;;;;;;;1999.90;999.90;;;;;;;;;;6302944;22;20443;-74
2023/05/13 04:40:44;;;;;;;1999.90;999.90;;;;;;;;;;6329447;22;20136;-74
2023/05/13 04:43:11;;;;;;;1999.90;999.90;;;;;;;;;;6331060;22;20011;-74
2023/05/13 04:45:37;;;;;;;1999.90;999.90;;;;;;;;;;6331925;22;20017;-75
2023/05/13 04:48:03;;;;;;;1999.90;999.90;;;;;;;;;;6330343;22;20103;-73
2023/05/13 04:50:30;;;;;;;1999.90;999.90;;;;;;;;;;6302648;22;20033;-73
2023/05/13 04:52:56;;;;;;;1999.90;999.90;;;;;;;;;;6331012;22;20364;-73
2023/05/13 04:55:22;;;;;;;1999.90;999.90;;;;;;;;;;6330043;22;20050;-72
2023/05/13 04:57:48;;;;;;;1999.90;999.90;;;;;;;;;;6331108;22;20082;-72
2023/05/13 05:00:14;;;;;;;1999.90;999.90;;;;;;;;;;6302182;22;20459;-72
2023/05/13 05:02:40;;;;;;;1999.90;999.90;;;;;;;;;;6302046;22;20026;-72
2023/05/13 05:05:07;;;;;;;1999.90;999.90;;;;;;;;;;6303101;22;20411;-72
2023/05/13 05:07:33;;;;;;;1999.90;999.90;;;;;;;;;;6330750;22;20075;-73
2023/05/13 05:09:59;;;;;;;1999.90;999.90;;;;;;;;;;6329399;22;20018;-72
2023/05/13 05:12:25;;;;;;;1999.90;999.90;;;;;;;;;;6302281;22;20015;-72
2023/05/13 05:14:51;;;;;;;1999.90;999.90;;;;;;;;;;6303893;22;20019;-72
2023/05/13 05:17:17;;;;;;;1999.90;999.90;;;;;;;;;;6330098;22;20018;-72
2023/05/13 05:19:43;;;;;;;1999.90;999.90;;;;;;;;;;6331274;22;20385;-72
2023/05/13 05:22:09;;;;;;;1999.90;999.90;;;;;;;;;;6330940;22;20015;-72
2023/05/13 05:24:35;;;;;;;1999.90;999.90;;;;;;;;;;6330607;22;20051;-73
2023/05/13 05:27:01;;;;;;;1999.90;999.90;;;;;;;;;;6330271;22;20399;-72
2023/05/13 05:29:27;;;;;;;1999.90;999.90;;;;;;;;;;6331486;22;20018;-73
2023/05/13 05:31:53;;;;;;;1999.90;999.90;;;;;;;;;;6330738;22;20099;-73
2023/05/13 05:34:19;;;;;;;1999.90;999.90;;;;;;;;;;6331213;22;20038;-73
2023/05/13 05:36:45;;;;;;;1999.90;999.90;;;;;;;;;;6331357;22;20034;-73
2023/05/13 05:39:11;;;;;;;1999.90;999.90;;;;;;;;;;6330638;22;20091;-72
2023/05/13 05:41:37;;;;;;;1999.90;999.90;;;;;;;;;;6330775;22;20049;-73
2023/05/13 05:44:03;;;;;;;1999.90;999.90;;;;;;;;;;6277366;22;20011;-74
2023/05/13 05:46:30;;;;;;;1999.90;999.90;;;;;;;;;;6330643;22;20013;-73
2023/05/13 05:48:56;;;;;;;1999.90;999.90;;;;;;;;;;6330689;22;20060;-72
2023/05/13 05:51:22;;;;;;;1999.90;999.90;;;;;;;;;;6330886;22;20454;-73
2023/05/13 05:53:48;;;;;;;1999.90;999.90;;;;;;;;;;6303201;22;20048;-73
2023/05/13 05:56:14;;;;;;;1999.90;999.90;;;;;;;;;;6329561;22;21005;-73
2023/05/13 05:58:40;;;;;;;1999.90;999.90;;;;;;;;;;6331676;22;20382;-72
2023/05/13 06:01:06;;;;;;;1999.90;999.90;;;;;;;;;;6302894;22;20018;-73
2023/05/13 06:03:32;;;;;;;1999.90;999.90;;;;;;;;;;6302977;22;20010;-73
2023/05/13 06:05:58;;;;;;;1999.90;999.90;;;;;;;;;;6302821;22;20023;-72
2023/05/13 06:08:28;;;;;;;1999.90;999.90;;;;;;;;;;6302550;22;20017;-73
2023/05/13 06:10:55;;;;;;;1999.90;999.90;;;;;;;;;;6302644;22;20046;-72
2023/05/13 06:13:21;;;;;;;1999.90;999.90;;;;;;;;;;6331619;22;20083;-73
2023/05/13 06:15:47;;;;;;;1999.90;999.90;;;;;;;;;;6302301;22;20443;-73
2023/05/13 06:18:13;;;;;;;1999.90;999.90;;;;;;;;;;6330653;22;20014;-73
2023/05/13 06:20:40;;;;;;;1999.90;999.90;;;;;;;;;;6331217;22;20011;-73
2023/05/13 06:23:06;;;;;;;1999.90;999.90;;;;;;;;;;6330207;22;20007;-72
2023/05/13 06:25:32;;;;;;;1999.90;999.90;;;;;;;;;;6330067;22;20013;-73
2023/05/13 06:27:58;;;;;;;1999.90;999.90;;;;;;;;;;6330840;22;20060;-73
2023/05/13 06:30:24;;;;;;;1999.90;999.90;;;;;;;;;;6332328;22;20015;-73
2023/05/13 06:32:50;;;;;;;1999.90;999.90;;;;;;;;;;6304165;22;20019;-74
2023/05/13 06:35:16;;;;;;;1999.90;999.90;;;;;;;;;;6330991;22;20463;-74
2023/05/13 06:37:42;;;;;;;1999.90;999.90;;;;;;;;;;6302706;22;20085;-73
2023/05/13 06:40:08;;;;;;;1999.90;999.90;;;;;;;;;;6331923;22;20045;-74
2023/05/13 06:42:39;;;;;;;1999.90;999.90;;;;;;;;;;6304717;22;20015;-84
2023/05/13 06:45:05;;;;;;;1999.90;999.90;;;;;;;;;;6304359;22;20011;-79
2023/05/13 06:47:31;;;;;;;1999.90;999.90;;;;;;;;;;6331611;22;20100;-80
2023/05/13 06:49:57;;;;;;;1999.90;999.90;;;;;;;;;;6331284;22;20018;-79
2023/05/13 06:52:23;;;;;;;1999.90;999.90;;;;;;;;;;6304578;22;20828;-79
2023/05/13 06:54:50;;;;;;;1999.90;999.90;;;;;;;;;;6303487;22;20470;-80
2023/05/13 06:57:16;;;;;;;1999.90;999.90;;;;;;;;;;6330429;22;20011;-83
2023/05/13 06:59:43;;;;;;;1999.90;999.90;;;;;;;;;;6331774;22;20026;-91
2023/05/13 07:02:10;;;;;;;1999.90;999.90;;;;;;;;;;6331850;22;20010;-80
2023/05/13 07:04:36;;;;;;;1999.90;999.90;;;;;;;;;;6303113;22;20015;-81
2023/05/13 07:07:02;;;;;;;1999.90;999.90;;;;;;;;;;6277122;22;20021;-80
2023/05/13 07:09:28;;;;;;;1999.90;999.90;;;;;;;;;;6301794;22;20022;-77
2023/05/13 07:11:54;;;;;;;1999.90;999.90;;;;;;;;;;6331833;22;20010;-81
2023/05/13 07:14:20;;;;;;;1999.90;999.90;;;;;;;;;;6332877;22;20015;-81
2023/05/13 07:16:46;;;;;;;1999.90;999.90;;;;;;;;;;6301830;22;20060;-85
2023/05/13 07:19:12;;;;;;;1999.90;999.90;;;;;;;;;;6301961;22;20046;-84
2023/05/13 07:21:38;;;;;;;1999.90;999.90;;;;;;;;;;6332041;22;20042;-82
2023/05/13 07:24:04;;;;;;;1999.90;999.90;;;;;;;;;;6303748;22;20017;-80
2023/05/13 07:26:31;;;;;;;1999.90;999.90;;;;;;;;;;6303633;22;20015;-80
2023/05/13 07:28:58;;;;;;;1999.90;999.90;;;;;;;;;;6330807;22;20014;-90
2023/05/13 07:31:24;;;;;;;1999.90;999.90;;;;;;;;;;6331650;22;20049;-89
2023/05/13 07:33:50;;;;;;;1999.90;999.90;;;;;;;;;;6331588;22;20015;-80
2023/05/13 07:36:16;;;;;;;1999.90;999.90;;;;;;;;;;6330525;22;20006;-83
2023/05/13 07:38:43;;;;;;;1999.90;999.90;;;;;;;;;;6331288;22;20466;-83
2023/05/13 07:41:09;;;;;;;1999.90;999.90;;;;;;;;;;6330099;22;20015;-83
2023/05/13 07:43:35;;;;;;;1999.90;999.90;;;;;;;;;;6331900;22;20017;-83
2023/05/13 07:46:02;;;;;;;1999.90;999.90;;;;;;;;;;6330637;22;20018;-83
2023/05/13 07:48:28;;;;;;;1999.90;999.90;;;;;;;;;;6330806;22;20348;-83
2023/05/13 07:50:54;;;;;;;1999.90;999.90;;;;;;;;;;6302506;22;20047;-83
2023/05/13 07:53:20;;;;;;;1999.90;999.90;;;;;;;;;;6303095;22;20435;-84
2023/05/13 07:55:46;;;;;;;1999.90;999.90;;;;;;;;;;6305576;22;20018;-83
2023/05/13 07:58:12;;;;;;;1999.90;999.90;;;;;;;;;;6304310;22;20007;-82
2023/05/13 08:00:38;;;;;;;1999.90;999.90;;;;;;;;;;6302808;22;20360;-82
2023/05/13 08:03:05;;;;;;;1999.90;999.90;;;;;;;;;;6302383;22;20021;-82
2023/05/13 08:05:31;;;;;;;1999.90;999.90;;;;;;;;;;6332296;22;20046;-81
2023/05/13 08:07:58;;;;;;;1999.90;999.90;;;;;;;;;;6331186;22;20094;-82
2023/05/13 08:10:24;;;;;;;1999.90;999.90;;;;;;;;;;6304009;22;20443;-82
2023/05/13 08:12:56;;;;;;;1999.90;999.90;;;;;;;;;;6331181;22;20015;-83
2023/05/13 08:15:22;;;;;;;1999.90;999.90;;;;;;;;;;6332135;22;20416;-81
2023/05/13 08:17:48;;;;;;;1999.90;999.90;;;;;;;;;;6330798;22;20047;-78
2023/05/13 08:20:14;;;;;;;1999.90;999.90;;;;;;;;;;6331856;22;20334;-79
2023/05/13 08:22:41;;;;;;;1999.90;999.90;;;;;;;;;;6330600;22;20015;-79
2023/05/13 08:25:10;;;;;;;1999.90;999.90;;;;;;;;;;6331229;22;20342;-78
2023/05/13 08:27:36;;;;;;;1999.90;999.90;;;;;;;;;;6330990;22;20355;-78
2023/05/13 08:30:02;;;;;;;1999.90;999.90;;;;;;;;;;6331111;22;20022;-88
2023/05/13 08:32:28;;;;;;;1999.90;999.90;;;;;;;;;;6330701;22;20017;-85
2023/05/13 08:34:54;;;;;;;1999.90;999.90;;;;;;;;;;6331767;22;20372;-83
2023/05/13 08:37:21;;;;;;;1999.90;999.90;;;;;;;;;;6330785;22;20368;-85
2023/05/13 08:39:47;;;;;;;1999.90;999.90;;;;;;;;;;6332398;22;20348;-84
2023/05/13 08:42:18;;;;;;;1999.90;999.90;;;;;;;;;;6330627;22;20208;-82
2023/05/13 08:44:43;;;;;;;;;;;;;;;;;;6331236;22;20018;-83
2023/05/13 08:47:18;;;;;;;1999.90;999.90;;;;;;;;;;6296896;22;20044;-83
2023/05/13 08:49:45;;;;;;;1999.90;999.90;;;;;;;;;;6303620;22;20072;-79
2023/05/13 08:52:11;;;;;;;1999.90;999.90;;;;;;;;;;6327574;22;20354;-80
2023/05/13 08:54:37;;;;;;;1999.90;999.90;;;;;;;;;;6329708;22;20019;-79
2023/05/13 08:57:04;;;;;;;1999.90;999.90;;;;;;;;;;6302311;22;20017;-80
2023/05/13 08:59:30;;;;;;;1999.90;999.90;;;;;;;;;;6329535;22;20081;-77
2023/05/13 09:01:56;;;;;;;1999.90;999.90;;;;;;;;;;6329096;22;20053;-83
2023/05/13 09:04:23;;;;;;;1999.90;999.90;;;;;;;;;;6330231;22;20018;-80
2023/05/13 09:06:49;;;;;;;1999.90;999.90;;;;;;;;;;6302387;22;20011;-76
2023/05/13 09:09:15;;;;;;;1999.90;999.90;;;;;;;;;;6330177;22;20015;-76
2023/05/13 09:11:41;;;;;;;1999.90;999.90;;;;;;;;;;6330794;22;20082;-76
2023/05/13 09:14:10;;;;;;;1999.90;999.90;;;;;;;;;;6329520;22;20075;-76
2023/05/13 09:16:36;;;;;;;1999.90;999.90;;;;;;;;;;6330681;22;20006;-76
2023/05/13 09:19:03;;;;;;;1999.90;999.90;;;;;;;;;;6330440;22;20368;-76
2023/05/13 09:21:30;;;;;;;1999.90;999.90;;;;;;;;;;6330815;22;20136;-75
2023/05/13 09:24:09;;;;;;;1999.90;999.90;;;;;;;;;;6331071;22;20010;-76
2023/05/13 09:26:36;;;;;;;1999.90;999.90;;;;;;;;;;6301444;22;20018;-76
2023/05/13 09:29:19;;;;;;;1999.90;999.90;;;;;;;;;;6302486;22;20381;-76
2023/05/13 09:31:52;;;;;;;1999.90;999.90;;;;;;;;;;6330506;22;20159;-76
2023/05/13 09:34:29;;;;;;;1999.90;999.90;;;;;;;;;;6330718;22;20042;-77
2023/05/13 09:36:56;;;;;;;1999.90;999.90;;;;;;;;;;6302413;22;20089;-75
2023/05/13 09:39:22;;;;;;;1999.90;999.90;;;;;;;;;;6303451;22;20106;-76
2023/05/13 09:41:48;;;;;;;1999.90;999.90;;;;;;;;;;6330802;22;20011;-75
2023/05/13 09:44:14;;;;;;;1999.90;999.90;;;;;;;;;;6330188;22;20014;-75
2023/05/13 09:46:42;;;;;;;1999.90;999.90;;;;;;;;;;6330296;22;20017;-74
2023/05/13 09:49:09;;;;;;;1999.90;999.90;;;;;;;;;;6329304;22;20022;-78
2023/05/13 09:51:35;;;;;;;1999.90;999.90;;;;;;;;;;6302571;22;20083;-79
2023/05/13 09:54:05;;;;;;;1999.90;999.90;;;;;;;;;;6302477;22;20014;-78
2023/05/13 09:56:32;;;;;;;1999.90;999.90;;;;;;;;;;6302126;22;20064;-78
2023/05/13 09:58:58;;;;;;;1999.90;999.90;;;;;;;;;;6329763;22;20021;-77
2023/05/13 10:01:24;;;;;;;1999.90;999.90;;;;;;;;;;6331472;22;20340;-77
2023/05/13 10:03:50;;;;;;;1999.90;999.90;;;;;;;;;;6328933;22;20021;-75
2023/05/13 10:06:17;;;;;;;1999.90;999.90;;;;;;;;;;6331938;22;20018;-77
2023/05/13 10:08:46;;;;;;;1999.90;999.90;;;;;;;;;;6333155;22;20021;-76
2023/05/13 10:11:14;;;;;;;1999.90;999.90;;;;;;;;;;6304973;22;20022;-78
2023/05/13 10:13:40;;;;;;;1999.90;999.90;;;;;;;;;;6329988;22;20049;-77
2023/05/13 10:16:07;;;;;;;1999.90;999.90;;;;;;;;;;6332684;22;20007;-78
2023/05/13 10:18:33;;;;;;;1999.90;999.90;;;;;;;;;;6304489;22;20038;-78
2023/05/13 10:20:59;;;;;;;1999.90;999.90;;;;;;;;;;6304615;22;20089;-78
2023/05/13 10:23:26;;;;;;;1999.90;999.90;;;;;;;;;;6331901;22;20011;-79
2023/05/13 10:25:53;;;;;;;1999.90;999.90;;;;;;;;;;6333116;22;20006;-78
2023/05/13 10:28:19;;;;;;;1999.90;999.90;;;;;;;;;;6331170;22;20011;-87
2023/05/13 10:30:45;;;;;;;1999.90;999.90;;;;;;;;;;6334124;22;20060;-77
2023/05/13 10:33:11;;;;;;;1999.90;999.90;;;;;;;;;;6306424;22;20011;-90
2023/05/13 10:35:39;;;;;;;1999.90;999.90;;;;;;;;;;6305243;22;20053;-79
2023/05/13 10:38:25;;;;;;;1999.90;999.90;;;;;;;;;;6330250;22;20050;-77
2023/05/13 10:41:10;;;;;;;1999.90;999.90;;;;;;;;;;6332184;22;20022;-77
2023/05/13 10:43:36;;;;;;;1999.90;999.90;;;;;;;;;;6332158;22;20064;-75
2023/05/13 10:46:07;;;;;;;1999.90;999.90;;;;;;;;;;6303204;22;20011;-77
2023/05/13 10:48:40;;;;;;;1999.90;999.90;;;;;;;;;;6331723;22;20019;-78
2023/05/13 10:51:10;;;;;;;1999.90;999.90;;;;;;;;;;6332629;22;20019;-77
2023/05/13 10:53:37;;;;;;;1999.90;999.90;;;;;;;;;;6332260;22;20007;-77
2023/05/13 10:56:06;;;;;;;1999.90;999.90;;;;;;;;;;6304414;22;20049;-80
2023/05/13 10:58:36;;;;;;;1999.90;999.90;;;;;;;;;;6331429;22;20018;-78
2023/05/13 11:01:14;;;;;;;1999.90;999.90;;;;;;;;;;6331751;22;20017;-79
2023/05/13 11:03:41;;;;;;;1999.90;999.90;;;;;;;;;;6331436;22;20126;-78
2023/05/13 11:06:12;;;;;;;1999.90;999.90;;;;;;;;;;6302354;22;20067;-77
2023/05/13 11:08:48;;;;;;;1999.90;999.90;;;;;;;;;;6331049;22;20086;-77
2023/05/13 11:11:18;;;;;;;1999.90;999.90;;;;;;;;;;6329891;22;20050;-77
2023/05/13 11:13:44;;;;;;;1999.90;999.90;;;;;;;;;;6332131;22;20082;-81
2023/05/13 11:16:12;;;;;;;1999.90;999.90;;;;;;;;;;6331751;22;20327;-78
2023/05/13 11:18:38;;;;;;;1999.90;999.90;;;;;;;;;;6304810;22;20018;-79
2023/05/13 11:21:05;;;;;;;1999.90;999.90;;;;;;;;;;6331381;22;20007;-78
2023/05/13 11:23:33;;;;;;;1999.90;999.90;;;;;;;;;;6331328;22;20073;-85
2023/05/13 11:26:10;;;;;;;1999.90;999.90;;;;;;;;;;6330203;22;20018;-86
2023/05/13 11:28:53;;;;;;;1999.90;999.90;;;;;;;;;;6332314;22;20125;-86
2023/05/13 11:31:20;;;;;;;1999.90;999.90;;;;;;;;;;6304956;22;20026;-86
2023/05/13 11:34:05;;;;;;;1999.90;999.90;;;;;;;;;;6332893;22;20011;-86
2023/05/13 11:36:32;;;;;;;1999.90;999.90;;;;;;;;;;6303873;22;20085;-86
2023/05/13 11:39:10;;;;;;;1999.90;999.90;;;;;;;;;;6303443;22;20018;-86
2023/05/13 11:41:36;;;;;;;1999.90;999.90;;;;;;;;;;6331644;22;20011;-85
2023/05/13 11:44:04;;;;;;;1999.90;999.90;;;;;;;;;;6304271;22;20019;-87
2023/05/13 11:46:30;;;;;;;1999.90;999.90;;;;;;;;;;6331874;22;20084;-86
2023/05/13 11:48:56;;;;;;;1999.90;999.90;;;;;;;;;;6302269;22;20452;-86
2023/05/13 11:51:24;;;;;;;1999.90;999.90;;;;;;;;;;6304128;22;20064;-85
2023/05/13 11:53:51;;;;;;;1999.90;999.90;;;;;;;;;;6332309;22;20069;-87
2023/05/13 11:56:18;;;;;;;1999.90;999.90;;;;;;;;;;6330927;22;20049;-86
2023/05/13 11:58:44;;;;;;;1999.90;999.90;;;;;;;;;;6303862;22;20439;-85
2023/05/13 12:01:16;;;;;;;1999.90;999.90;;;;;;;;;;6304264;22;20029;-87
2023/05/13 12:03:42;;;;;;;1999.90;999.90;;;;;;;;;;6330680;22;20497;-86
2023/05/13 12:06:08;;;;;;;1999.90;999.90;;;;;;;;;;6331528;22;20011;-86
2023/05/13 12:08:35;;;;;;;1999.90;999.90;;;;;;;;;;6331533;22;20082;-86
2023/05/13 12:11:01;;;;;;;1999.90;999.90;;;;;;;;;;6301709;22;20493;-86
2023/05/13 12:13:27;;;;;;;1999.90;999.90;;;;;;;;;;6304209;22;20018;-84
2023/05/13 12:15:54;;;;;;;1999.90;999.90;;;;;;;;;;6332196;22;20006;-86
2023/05/13 12:18:20;;;;;;;1999.90;999.90;;;;;;;;;;6331488;22;20010;-85
2023/05/13 12:20:46;;;;;;;1999.90;999.90;;;;;;;;;;6332438;22;20084;-85
2023/05/13 12:23:12;;;;;;;1999.90;999.90;;;;;;;;;;6331327;22;20083;-86
2023/05/13 12:25:41;;;;;;;1999.90;999.90;;;;;;;;;;6331225;22;20011;-86
2023/05/13 12:28:24;;;;;;;1999.90;999.90;;;;;;;;;;6303257;22;20021;-85
2023/05/13 12:30:53;;;;;;;1999.90;999.90;;;;;;;;;;6332726;22;20140;-86
2023/05/13 12:33:21;;;;;;;1999.90;999.90;;;;;;;;;;6331372;22;20094;-86
2023/05/13 12:35:48;;;;;;;1999.90;999.90;;;;;;;;;;6304180;22;20177;-86
2023/05/13 12:38:16;;;;;;;1999.90;999.90;;;;;;;;;;6334666;22;20407;-85
2023/05/13 12:40:42;;;;;;;1999.90;999.90;;;;;;;;;;6314793;22;20007;-84
2023/05/13 12:43:10;;;;;;;1999.90;999.90;;;;;;;;;;6278275;22;20018;-85
2023/05/13 12:45:36;;;;;;;1999.90;999.90;;;;;;;;;;6303852;22;20026;-85
2023/05/13 12:48:03;;;;;;;1999.90;999.90;;;;;;;;;;6303931;22;20108;-84
2023/05/13 12:50:29;;;;;;;1999.90;999.90;;;;;;;;;;6331587;22;20014;-84
2023/05/13 12:52:56;;;;;;;1999.90;999.90;;;;;;;;;;6329038;22;20011;-83
2023/05/13 12:55:22;;;;;;;1999.90;999.90;;;;;;;;;;6331528;22;20015;-83
2023/05/13 12:57:56;;;;;;;1999.90;999.90;;;;;;;;;;6304602;22;20057;-83
2023/05/13 13:00:23;;;;;;;1999.90;999.90;;;;;;;;;;6303199;22;20023;-83
2023/05/13 13:02:50;;;;;;;1999.90;999.90;;;;;;;;;;6303603;22;20340;-84
2023/05/13 13:05:16;;;;;;;1999.90;999.90;;;;;;;;;;6330338;22;20499;-84
2023/05/13 13:07:42;;;;;;;1999.90;999.90;;;;;;;;;;6302717;22;20050;-84
2023/05/13 13:10:10;;;;;;;1999.90;999.90;;;;;;;;;;6303109;22;20018;-83
2023/05/13 13:12:36;;;;;;;1999.90;999.90;;;;;;;;;;6303198;22;20011;-84
2023/05/13 13:15:02;;;;;;;1999.90;999.90;;;;;;;;;;6330937;22;20022;-83
2023/05/13 13:17:28;;;;;;;1999.90;999.90;;;;;;;;;;6331007;22;20015;-83
2023/05/13 13:19:54;;;;;;;1999.90;999.90;;;;;;;;;;6331015;22;20344;-84
2023/05/13 13:22:20;;;;;;;1999.90;999.90;;;;;;;;;;6329427;22;20010;-83
2023/05/13 13:24:46;;;;;;;1999.90;999.90;;;;;;;;;;6331669;22;20090;-78
2023/05/13 13:27:12;;;;;;;1999.90;999.90;;;;;;;;;;6331129;22;20402;-77
2023/05/13 13:29:39;;;;;;;1999.90;999.90;;;;;;;;;;6330549;22;20014;-77
2023/05/13 13:32:05;;;;;;;1999.90;999.90;;;;;;;;;;6301390;22;20014;-77
2023/05/13 13:34:31;;;;;;;1999.90;999.90;;;;;;;;;;6302955;22;20018;-77
2023/05/13 13:36:57;;;;;;;1999.90;999.90;;;;;;;;;;6301746;22;20023;-77
2023/05/13 13:39:23;;;;;;;1999.90;999.90;;;;;;;;;;6330753;22;20375;-77
2023/05/13 13:41:49;;;;;;;1999.90;999.90;;;;;;;;;;6302787;22;20080;-77